createdAt,value
2018-06-15T00:00:24.553Z,22.70
2018-06-15T00:02:58.882Z,25.07
2018-06-15T00:05:27.809Z,26.17
2018-06-15T00:07:56.744Z,25.80
2018-06-15T00:10:25.653Z,23.67
2018-06-15T00:12:54.573Z,25.47
2018-06-15T00:15:23.499Z,25.60
2018-06-15T00:17:52.406Z,24.50
2018-06-15T00:20:21.313Z,24.90
2018-06-15T00:22:50.225Z,24.60
2018-06-15T00:25:19.166Z,27.00
2018-06-15T00:27:48.066Z,26.73
2018-06-15T00:30:17.005Z,25.97
2018-06-15T00:32:45.924Z,26.37
2018-06-15T00:35:14.866Z,25.27
2018-06-15T00:37:43.766Z,26.57
2018-06-15T00:40:12.704Z,26.10
2018-06-15T00:42:41.613Z,27.60
2018-06-15T00:45:10.724Z,26.50
2018-06-15T00:47:39.648Z,28.57
2018-06-15T00:50:08.527Z,26.93
2018-06-15T00:52:37.470Z,26.67
2018-06-15T00:55:06.483Z,28.70
2018-06-15T00:57:48.406Z,26.23
2018-06-15T01:00:17.825Z,27.63
2018-06-15T01:02:47.001Z,28.67
2018-06-15T01:05:15.942Z,28.13
2018-06-15T01:07:44.840Z,27.37
2018-06-15T01:10:13.790Z,29.77
2018-06-15T01:12:42.729Z,27.27
2018-06-15T01:15:11.619Z,27.77
2018-06-15T01:17:40.541Z,29.13
2018-06-15T01:20:09.454Z,29.30
2018-06-15T01:22:38.636Z,30.13
2018-06-15T01:25:07.540Z,30.27
2018-06-15T01:27:36.501Z,30.00
2018-06-15T01:30:06.200Z,27.20
2018-06-15T01:32:35.101Z,32.47
2018-06-15T01:35:04.039Z,28.40
2018-06-15T01:37:32.957Z,32.97
2018-06-15T01:40:01.898Z,29.90
2018-06-15T01:42:30.865Z,31.40
2018-06-15T01:44:59.755Z,30.93
2018-06-15T01:47:28.654Z,28.77
2018-06-15T01:49:57.627Z,31.93
2018-06-15T01:52:26.516Z,32.53
2018-06-15T01:54:55.472Z,28.27
2018-06-15T01:57:24.407Z,29.73
2018-06-15T01:59:53.323Z,29.97
2018-06-15T02:02:22.255Z,28.30
2018-06-15T02:04:51.144Z,26.93
2018-06-15T02:07:20.090Z,27.63
2018-06-15T02:09:48.975Z,26.50
2018-06-15T02:12:17.942Z,32.40
2018-06-15T02:14:46.836Z,26.60
2018-06-15T02:17:15.754Z,29.33
2018-06-15T02:19:44.704Z,28.77
2018-06-15T02:22:13.651Z,28.67
2018-06-15T02:24:42.654Z,30.07
2018-06-15T02:27:11.609Z,25.63
2018-06-15T02:29:40.522Z,31.30
2018-06-15T02:32:09.462Z,29.03
2018-06-15T02:34:38.400Z,28.50
2018-06-15T02:37:07.321Z,30.57
2018-06-15T02:39:36.232Z,29.80
2018-06-15T02:42:05.202Z,29.43
2018-06-15T02:44:34.148Z,28.17
2018-06-15T02:47:03.041Z,28.13
2018-06-15T02:49:31.943Z,28.30
2018-06-15T02:52:00.843Z,28.80
2018-06-15T02:54:29.742Z,32.77
2018-06-15T02:56:58.684Z,31.27
2018-06-15T02:59:27.618Z,27.67
2018-06-15T03:01:56.871Z,30.73
2018-06-15T03:04:25.798Z,29.73
2018-06-15T03:06:54.744Z,29.03
2018-06-15T03:09:23.825Z,31.40
2018-06-15T03:11:52.740Z,30.77
2018-06-15T03:14:21.919Z,29.80
2018-06-15T03:16:51.328Z,28.47
2018-06-15T03:19:20.342Z,33.80
2018-06-15T03:21:49.260Z,30.07
2018-06-15T03:24:18.156Z,32.80
2018-06-15T03:26:47.051Z,33.63
2018-06-15T03:29:16.066Z,28.70
2018-06-15T03:31:44.989Z,30.53
2018-06-15T03:34:13.940Z,28.27
2018-06-15T03:36:42.839Z,29.13
2018-06-15T03:39:12.732Z,29.33
2018-06-15T03:41:41.676Z,26.87
2018-06-15T03:44:10.586Z,31.83
2018-06-15T03:46:39.539Z,31.23
2018-06-15T03:49:08.458Z,29.10
2018-06-15T03:51:37.375Z,30.20
2018-06-15T03:54:06.379Z,26.30
2018-06-15T03:56:35.283Z,32.80
2018-06-15T03:59:04.206Z,30.77
2018-06-15T04:01:33.137Z,29.47
2018-06-15T04:04:02.047Z,33.63
2018-06-15T04:06:30.973Z,31.57
2018-06-15T04:08:59.916Z,33.43
2018-06-15T04:11:28.827Z,31.17
2018-06-15T04:13:58.152Z,30.20
2018-06-15T04:16:27.334Z,30.37
2018-06-15T04:18:56.534Z,33.70
2018-06-15T04:21:25.732Z,32.93
2018-06-15T04:23:55.686Z,31.03
2018-06-15T04:26:24.602Z,31.93
2018-06-15T04:28:53.519Z,35.43
2018-06-15T04:31:22.492Z,36.43
2018-06-15T04:33:51.856Z,37.27
2018-06-15T04:36:20.764Z,31.70
2018-06-15T04:38:49.697Z,36.50
2018-06-15T04:41:18.617Z,35.20
2018-06-15T04:43:48.058Z,37.27
2018-06-15T04:46:16.935Z,35.73
2018-06-15T04:48:45.854Z,36.73
2018-06-15T04:51:14.763Z,35.77
2018-06-15T04:53:43.651Z,37.57
2018-06-15T04:56:12.571Z,38.13
2018-06-15T04:58:41.470Z,39.03
2018-06-15T05:01:10.424Z,41.80
2018-06-15T05:03:39.334Z,40.37
2018-06-15T05:06:08.228Z,36.83
2018-06-15T05:08:37.172Z,39.03
2018-06-15T05:11:06.075Z,39.03
2018-06-15T05:13:34.998Z,38.83
2018-06-15T05:16:03.966Z,43.23
2018-06-15T05:18:32.867Z,44.83
2018-06-15T05:21:01.786Z,42.50
2018-06-15T05:23:30.732Z,47.13
2018-06-15T05:25:59.669Z,46.73
2018-06-15T05:28:28.604Z,46.17
2018-06-15T05:30:57.487Z,42.73
2018-06-15T05:33:26.955Z,45.57
2018-06-15T05:35:55.942Z,50.23
2018-06-15T05:38:25.026Z,45.13
2018-06-15T05:40:53.977Z,47.77
2018-06-15T05:43:22.895Z,44.80
2018-06-15T05:45:51.856Z,43.53
2018-06-15T05:48:20.763Z,48.07
2018-06-15T05:50:49.718Z,46.20
2018-06-15T05:53:19.190Z,51.97
2018-06-15T05:55:48.233Z,46.97
2018-06-15T05:58:17.125Z,50.47
2018-06-15T06:00:46.091Z,55.03
2018-06-15T06:03:19.963Z,52.73
2018-06-15T06:05:49.487Z,55.90
2018-06-15T06:08:19.929Z,53.27
2018-06-15T06:10:49.417Z,53.03
2018-06-15T06:13:18.525Z,57.70
2018-06-15T06:15:47.635Z,55.80
2018-06-15T06:18:16.608Z,55.63
2018-06-15T06:20:45.545Z,52.43
2018-06-15T06:23:14.439Z,55.77
2018-06-15T06:25:43.360Z,55.40
2018-06-15T06:28:12.292Z,54.70
2018-06-15T06:30:41.209Z,56.60
2018-06-15T06:33:10.176Z,55.73
2018-06-15T06:35:39.090Z,54.53
2018-06-15T06:38:08.044Z,52.67
2018-06-15T06:40:36.973Z,53.63
2018-06-15T06:43:05.908Z,55.73
2018-06-15T06:45:34.818Z,55.60
2018-06-15T06:48:03.751Z,54.20
2018-06-15T06:50:32.675Z,56.10
2018-06-15T06:53:01.558Z,57.53
2018-06-15T06:55:30.481Z,57.63
2018-06-15T06:57:59.413Z,57.40
2018-06-15T07:00:28.334Z,55.73
2018-06-15T07:02:57.564Z,56.23
2018-06-15T07:05:26.478Z,53.67
2018-06-15T07:07:55.395Z,59.03
2018-06-15T07:10:24.408Z,52.80
2018-06-15T07:12:53.341Z,57.07
2018-06-15T07:15:22.244Z,59.83
2018-06-15T07:17:51.170Z,59.87
2018-06-15T07:20:20.100Z,60.23
2018-06-15T07:22:49.025Z,60.63
2018-06-15T07:25:18.094Z,56.87
2018-06-15T07:27:47.202Z,64.27
2018-06-15T07:30:16.118Z,63.40
2018-06-15T07:32:45.058Z,64.67
2018-06-15T07:35:13.969Z,60.10
2018-06-15T07:37:42.886Z,56.53
2018-06-15T07:40:11.796Z,58.23
2018-06-15T07:42:40.716Z,51.40
2018-06-15T07:45:09.637Z,53.13
2018-06-15T07:47:38.545Z,52.17
2018-06-15T07:50:07.432Z,53.80
2018-06-15T07:52:36.341Z,51.80
2018-06-15T07:55:05.289Z,48.97
2018-06-15T07:57:34.194Z,50.00
2018-06-15T08:00:03.101Z,45.77
2018-06-15T08:02:32.041Z,45.37
2018-06-15T08:05:00.951Z,43.23
2018-06-15T08:07:29.848Z,45.33
2018-06-15T08:09:58.776Z,40.00
2018-06-15T08:12:27.676Z,44.83
2018-06-15T08:14:56.601Z,44.93
2018-06-15T08:17:25.517Z,41.63
2018-06-15T08:19:54.436Z,42.40
2018-06-15T08:22:23.348Z,37.03
2018-06-15T08:24:52.289Z,37.93
2018-06-15T08:27:21.214Z,40.37
2018-06-15T08:29:50.110Z,34.17
2018-06-15T08:32:19.025Z,32.77
2018-06-15T08:34:48.232Z,37.67
2018-06-15T08:37:17.469Z,33.93
2018-06-15T08:39:46.909Z,33.37
2018-06-15T08:42:16.112Z,33.73
2018-06-15T08:44:45.009Z,30.70
2018-06-15T08:47:13.951Z,31.17
2018-06-15T08:49:42.854Z,32.53
2018-06-15T08:52:11.789Z,31.83
2018-06-15T08:54:40.700Z,29.67
2018-06-15T08:57:09.616Z,28.00
2018-06-15T08:59:38.558Z,28.20
2018-06-15T09:02:07.462Z,30.43
2018-06-15T09:04:36.372Z,25.47
2018-06-15T09:07:05.527Z,24.73
2018-06-15T09:09:34.425Z,27.73
2018-06-15T09:12:03.362Z,34.00
2018-06-15T09:14:32.287Z,31.77
2018-06-15T09:17:01.195Z,26.03
2018-06-15T09:19:30.094Z,29.97
2018-06-15T09:21:59.016Z,23.17
2018-06-15T09:24:27.934Z,23.93
2018-06-15T09:26:56.860Z,23.27
2018-06-15T09:29:25.998Z,19.47
2018-06-15T09:31:54.913Z,19.57
2018-06-15T09:34:23.859Z,19.90
2018-06-15T09:36:52.781Z,19.47
2018-06-15T09:39:21.922Z,19.53
2018-06-15T09:41:50.842Z,16.37
2018-06-15T09:44:19.762Z,15.50
2018-06-15T09:46:48.694Z,19.33
2018-06-15T09:49:17.584Z,14.33
2018-06-15T09:51:46.494Z,14.93
2018-06-15T09:54:15.437Z,14.33
2018-06-15T09:56:44.349Z,14.63
2018-06-15T09:59:13.293Z,12.67
2018-06-15T10:01:42.195Z,15.53
2018-06-15T10:04:11.092Z,15.00
2018-06-15T10:06:39.993Z,14.60
2018-06-15T10:09:08.901Z,15.63
2018-06-15T10:11:37.973Z,15.33
2018-06-15T10:14:06.900Z,13.33
2018-06-15T10:16:35.813Z,12.10
2018-06-15T10:19:04.730Z,11.70
2018-06-15T10:21:33.647Z,13.07
2018-06-15T10:24:02.568Z,13.07
2018-06-15T10:26:31.465Z,18.50
2018-06-15T10:29:00.396Z,12.97
2018-06-15T10:31:29.317Z,11.07
2018-06-15T10:33:58.218Z,13.33
2018-06-15T10:36:27.165Z,12.20
2018-06-15T10:38:56.073Z,13.13
2018-06-15T10:41:25.000Z,10.00
2018-06-15T10:43:53.927Z,8.70
2018-06-15T10:46:22.810Z,11.67
2018-06-15T10:48:51.738Z,10.17
2018-06-15T10:51:20.646Z,10.77
2018-06-15T10:53:49.534Z,12.87
2018-06-15T10:56:18.461Z,10.77
2018-06-15T10:58:47.367Z,12.00
2018-06-15T11:01:16.316Z,14.37
2018-06-15T11:03:45.221Z,10.93
2018-06-15T11:06:14.157Z,13.00
2018-06-15T11:08:46.708Z,12.40
2018-06-15T11:11:15.977Z,11.57
2018-06-15T11:13:44.920Z,9.87
2018-06-15T11:16:13.822Z,12.13
2018-06-15T11:18:42.725Z,10.40
2018-06-15T11:21:11.651Z,9.43
2018-06-15T11:23:40.558Z,9.93
2018-06-15T11:26:09.478Z,7.60
2018-06-15T11:28:38.398Z,10.30
2018-06-15T11:31:07.304Z,9.83
2018-06-15T11:33:36.240Z,7.67
2018-06-15T11:36:05.194Z,9.73
2018-06-15T11:38:34.145Z,8.83
2018-06-15T11:41:03.123Z,11.50
2018-06-15T11:43:31.952Z,9.23
2018-06-15T11:46:00.859Z,8.77
2018-06-15T11:48:29.750Z,9.90
2018-06-15T11:50:58.678Z,7.53
2018-06-15T11:53:27.640Z,10.80
2018-06-15T11:55:56.588Z,10.30
2018-06-15T11:58:25.474Z,7.50
2018-06-15T12:00:54.402Z,6.97
2018-06-15T12:03:24.333Z,7.03
2018-06-15T12:05:53.413Z,7.83
2018-06-15T12:08:25.487Z,7.60
2018-06-15T12:10:57.621Z,7.07
2018-06-15T12:13:26.520Z,7.63
2018-06-15T12:15:55.426Z,8.20
2018-06-15T12:18:24.339Z,7.80
2018-06-15T12:20:53.268Z,6.10
2018-06-15T12:23:22.226Z,6.57
2018-06-15T12:25:51.142Z,6.70
2018-06-15T12:28:20.058Z,7.47
2018-06-15T12:30:48.997Z,7.83
2018-06-15T12:33:17.919Z,9.03
2018-06-15T12:35:46.951Z,7.50
2018-06-15T12:38:16.240Z,7.60
2018-06-15T12:40:45.278Z,5.80
2018-06-15T12:43:14.285Z,8.43
2018-06-15T12:45:43.222Z,6.33
2018-06-15T12:48:12.134Z,7.13
2018-06-15T12:50:41.051Z,6.60
2018-06-15T12:53:10.114Z,7.90
2018-06-15T12:55:39.192Z,8.83
2018-06-15T12:58:08.134Z,8.33
2018-06-15T13:00:37.062Z,7.03
2018-06-15T13:03:06.001Z,7.17
2018-06-15T13:05:34.938Z,6.73
2018-06-15T13:08:03.883Z,5.53
2018-06-15T13:10:32.767Z,9.27
2018-06-15T13:13:01.698Z,8.13
2018-06-15T13:15:30.632Z,7.03
2018-06-15T13:17:59.604Z,11.00
2018-06-15T13:20:28.470Z,6.57
2018-06-15T13:22:57.359Z,5.13
2018-06-15T13:25:26.280Z,8.33
2018-06-15T13:27:55.190Z,6.20
2018-06-15T13:30:24.114Z,6.67
2018-06-15T13:32:53.054Z,8.17
2018-06-15T13:35:22.164Z,7.20
2018-06-15T13:37:51.124Z,6.77
2018-06-15T13:40:20.028Z,9.03
2018-06-15T13:42:48.983Z,9.27
2018-06-15T13:45:17.905Z,5.23
2018-06-15T13:47:46.949Z,8.27
2018-06-15T13:50:15.897Z,5.50
2018-06-15T13:52:44.802Z,5.60
2018-06-15T13:55:13.798Z,5.23
2018-06-15T13:57:42.729Z,5.80
2018-06-15T14:00:11.679Z,5.07
2018-06-15T14:02:40.798Z,6.70
2018-06-15T14:05:09.698Z,5.50
2018-06-15T14:07:38.635Z,5.03
2018-06-15T14:10:07.577Z,7.53
2018-06-15T14:12:36.483Z,8.33
2018-06-15T14:15:05.643Z,6.87
2018-06-15T14:17:34.549Z,8.77
2018-06-15T14:20:03.474Z,5.57
2018-06-15T14:22:32.716Z,6.47
2018-06-15T14:25:02.434Z,5.97
2018-06-15T14:27:31.736Z,8.33
2018-06-15T14:30:00.646Z,9.87
2018-06-15T14:32:29.554Z,7.50
2018-06-15T14:34:58.484Z,6.80
2018-06-15T14:37:27.420Z,6.50
2018-06-15T14:39:56.340Z,6.03
2018-06-15T14:42:25.247Z,7.47
2018-06-15T14:44:54.204Z,6.63
2018-06-15T14:47:23.128Z,6.57
2018-06-15T14:49:52.049Z,4.80
2018-06-15T14:52:20.977Z,6.80
2018-06-15T14:54:49.878Z,4.83
2018-06-15T14:57:18.790Z,4.90
2018-06-15T14:59:47.717Z,6.03
2018-06-15T15:02:16.592Z,8.27
2018-06-15T15:04:48.761Z,5.73
2018-06-15T15:07:17.652Z,6.93
2018-06-15T15:09:46.609Z,8.03
2018-06-15T15:12:15.524Z,7.73
2018-06-15T15:14:44.419Z,6.60
2018-06-15T15:17:13.356Z,5.93
2018-06-15T15:19:42.357Z,5.47
2018-06-15T15:22:11.308Z,7.00
2018-06-15T15:24:44.098Z,5.40
2018-06-15T15:27:13.082Z,5.80
2018-06-15T15:29:42.304Z,5.73
2018-06-15T15:32:11.240Z,3.97
2018-06-15T15:34:40.161Z,8.80
2018-06-15T15:37:09.120Z,5.40
2018-06-15T15:39:38.030Z,7.10
2018-06-15T15:42:07.024Z,3.87
2018-06-15T15:44:35.924Z,6.17
2018-06-15T15:47:05.028Z,4.63
2018-06-15T15:49:33.957Z,6.60
2018-06-15T15:52:02.880Z,11.00
2018-06-15T15:54:31.828Z,6.63
2018-06-15T15:57:00.723Z,5.40
2018-06-15T15:59:29.626Z,5.67
2018-06-15T16:01:58.646Z,5.00
2018-06-15T16:04:27.545Z,5.13
2018-06-15T16:06:56.514Z,5.67
2018-06-15T16:09:25.404Z,5.03
2018-06-15T16:11:54.654Z,6.33
2018-06-15T16:14:23.807Z,4.30
2018-06-15T16:16:52.718Z,4.73
2018-06-15T16:19:22.114Z,6.13
2018-06-15T16:21:51.031Z,5.07
2018-06-15T16:24:19.989Z,3.93
2018-06-15T16:26:48.940Z,6.50
2018-06-15T16:29:17.875Z,5.07
2018-06-15T16:31:46.814Z,4.53
2018-06-15T16:34:15.703Z,5.70
2018-06-15T16:36:44.625Z,6.43
2018-06-15T16:39:13.548Z,6.57
2018-06-15T16:41:42.479Z,5.40
2018-06-15T16:44:11.428Z,5.80
2018-06-15T16:46:40.346Z,9.47
2018-06-15T16:49:09.247Z,4.97
2018-06-15T16:51:38.161Z,5.63
2018-06-15T16:54:07.082Z,9.13
2018-06-15T16:56:36.013Z,4.83
2018-06-15T16:59:04.926Z,5.17
2018-06-15T17:01:33.829Z,4.07
2018-06-15T17:04:02.723Z,5.30
2018-06-15T17:06:31.631Z,5.63
2018-06-15T17:09:00.651Z,6.17
2018-06-15T17:11:29.582Z,6.17
2018-06-15T17:13:58.498Z,5.30
2018-06-15T17:16:27.428Z,6.03
2018-06-15T17:18:56.319Z,6.77
2018-06-15T17:21:25.260Z,4.60
2018-06-15T17:23:54.189Z,4.90
2018-06-15T17:26:23.243Z,3.57
2018-06-15T17:28:52.668Z,6.50
2018-06-15T17:31:21.647Z,4.73
2018-06-15T17:33:50.546Z,5.57
2018-06-15T17:36:19.452Z,7.47
2018-06-15T17:38:48.363Z,7.30
2018-06-15T17:41:17.304Z,6.77
2018-06-15T17:43:46.218Z,10.57
2018-06-15T17:46:15.143Z,7.43
2018-06-15T17:48:44.046Z,7.00
2018-06-15T17:51:13.028Z,5.37
2018-06-15T17:53:41.905Z,7.83
2018-06-15T17:56:10.829Z,7.10
2018-06-15T17:58:39.723Z,8.27
2018-06-15T18:01:08.669Z,10.10
2018-06-15T18:03:37.566Z,9.70
2018-06-15T18:06:06.494Z,5.50
2018-06-15T18:08:35.437Z,7.03
2018-06-15T18:11:04.312Z,5.37
2018-06-15T18:13:33.249Z,7.63
2018-06-15T18:16:02.144Z,6.83
2018-06-15T18:18:31.074Z,6.40
2018-06-15T18:21:00.100Z,7.53
2018-06-15T18:23:32.418Z,12.00
2018-06-15T18:26:01.383Z,8.67
2018-06-15T18:28:30.300Z,5.60
2018-06-15T18:30:59.202Z,6.27
2018-06-15T18:33:31.860Z,6.97
2018-06-15T18:36:00.750Z,9.53
2018-06-15T18:38:29.693Z,6.93
2018-06-15T18:40:58.620Z,7.80
2018-06-15T18:43:27.515Z,6.37
2018-06-15T18:45:56.422Z,6.50
2018-06-15T18:48:25.339Z,7.60
2018-06-15T18:50:54.242Z,6.70
2018-06-15T18:53:23.178Z,6.73
2018-06-15T18:55:52.054Z,9.00
2018-06-15T18:58:20.979Z,7.90
2018-06-15T19:00:49.877Z,8.93
2018-06-15T19:03:18.814Z,5.43
2018-06-15T19:05:47.723Z,8.17
2018-06-15T19:08:16.621Z,7.10
2018-06-15T19:10:45.559Z,8.70
2018-06-15T19:13:14.455Z,7.97
2018-06-15T19:15:43.381Z,7.40
2018-06-15T19:18:12.302Z,7.87
2018-06-15T19:20:41.206Z,4.83
2018-06-15T19:23:10.130Z,7.57
2018-06-15T19:25:39.029Z,8.13
2018-06-15T19:28:07.966Z,7.27
2018-06-15T19:30:36.861Z,7.30
2018-06-15T19:33:05.818Z,8.03
2018-06-15T19:35:34.736Z,8.43
2018-06-15T19:38:03.638Z,6.33
2018-06-15T19:40:32.566Z,7.80
2018-06-15T19:43:01.467Z,7.57
2018-06-15T19:45:30.370Z,7.30
2018-06-15T19:47:59.255Z,5.03
2018-06-15T19:50:28.188Z,8.27
2018-06-15T19:52:57.102Z,7.97
2018-06-15T19:55:26.022Z,7.10
2018-06-15T19:57:54.962Z,11.97
2018-06-15T20:00:23.905Z,9.00
2018-06-15T20:02:52.840Z,8.47
2018-06-15T20:05:21.800Z,9.37
2018-06-15T20:07:50.679Z,7.07
2018-06-15T20:10:19.626Z,12.43
2018-06-15T20:12:48.558Z,9.87
2018-06-15T20:15:17.444Z,8.67
2018-06-15T20:17:46.370Z,8.80
2018-06-15T20:20:15.267Z,6.57
2018-06-15T20:22:44.190Z,7.27
2018-06-15T20:25:13.278Z,9.90
2018-06-15T20:27:42.199Z,9.13
2018-06-15T20:30:11.123Z,9.40
2018-06-15T20:32:43.723Z,9.20
2018-06-15T20:35:12.668Z,11.13
2018-06-15T20:37:41.575Z,9.93
2018-06-15T20:40:10.474Z,8.13
2018-06-15T20:42:39.406Z,8.40
2018-06-15T20:45:08.346Z,7.87
2018-06-15T20:47:37.323Z,9.33
2018-06-15T20:50:06.155Z,7.13
2018-06-15T20:52:35.084Z,9.77
2018-06-15T20:55:03.984Z,7.10
2018-06-15T20:57:32.882Z,7.67
2018-06-15T21:00:01.858Z,11.03
2018-06-15T21:02:30.751Z,10.93
2018-06-15T21:04:59.658Z,7.20
2018-06-15T21:07:28.578Z,6.20
2018-06-15T21:09:57.698Z,6.73
2018-06-15T21:12:27.335Z,8.07
2018-06-15T21:14:56.260Z,7.40
2018-06-15T21:17:25.160Z,7.27
2018-06-15T21:19:54.055Z,8.93
2018-06-15T21:22:22.961Z,7.87
2018-06-15T21:24:51.997Z,9.80
2018-06-15T21:27:20.924Z,11.03
2018-06-15T21:29:50.045Z,9.40
2018-06-15T21:32:19.159Z,9.93
2018-06-15T21:34:48.071Z,7.10
2018-06-15T21:37:16.955Z,8.20
2018-06-15T21:39:45.885Z,9.53
2018-06-15T21:42:14.822Z,9.20
2018-06-15T21:44:43.719Z,8.50
2018-06-15T21:47:12.653Z,7.00
2018-06-15T21:49:41.884Z,9.43
2018-06-15T21:52:10.809Z,10.13
2018-06-15T21:54:39.719Z,10.93
2018-06-15T21:57:08.772Z,7.30
2018-06-15T21:59:37.703Z,9.83
2018-06-15T22:02:06.888Z,9.30
2018-06-15T22:04:35.823Z,9.03
2018-06-15T22:07:04.723Z,8.03
2018-06-15T22:09:33.648Z,7.00
2018-06-15T22:12:02.573Z,9.13
2018-06-15T22:14:31.459Z,10.03
2018-06-15T22:17:00.563Z,12.77
2018-06-15T22:19:29.479Z,11.33
2018-06-15T22:21:58.410Z,8.73
2018-06-15T22:24:27.341Z,13.20
2018-06-15T22:26:56.309Z,8.97
2018-06-15T22:29:25.245Z,7.47
2018-06-15T22:31:54.182Z,9.47
2018-06-15T22:34:23.105Z,9.43
2018-06-15T22:36:52.059Z,10.50
2018-06-15T22:39:21.390Z,11.10
2018-06-15T22:41:50.525Z,9.23
2018-06-15T22:44:19.450Z,12.03
2018-06-15T22:46:48.388Z,11.03
2018-06-15T22:49:17.328Z,10.43
2018-06-15T22:51:49.532Z,10.23
2018-06-15T22:54:18.460Z,9.67
2018-06-15T22:56:47.393Z,6.23
2018-06-15T22:59:16.316Z,7.33
2018-06-15T23:01:45.237Z,7.73
2018-06-15T23:04:14.160Z,12.07
2018-06-15T23:06:43.089Z,9.40
2018-06-15T23:09:12.536Z,9.30
2018-06-15T23:11:42.251Z,11.97
2018-06-15T23:14:11.644Z,7.03
2018-06-15T23:16:44.176Z,5.60
2018-06-15T23:19:13.105Z,6.27
2018-06-15T23:21:42.024Z,8.33
2018-06-15T23:24:10.964Z,11.27
2018-06-15T23:26:39.916Z,7.93
2018-06-15T23:29:08.853Z,8.73
2018-06-15T23:31:37.788Z,11.43
2018-06-15T23:34:06.972Z,7.70
2018-06-15T23:36:35.913Z,10.07
2018-06-15T23:39:06.972Z,5.23
2018-06-15T23:41:35.904Z,8.33
2018-06-15T23:44:04.816Z,8.13
2018-06-15T23:46:33.739Z,7.23
2018-06-15T23:49:02.712Z,8.07
2018-06-15T23:51:31.792Z,6.50
2018-06-15T23:54:00.717Z,7.20
2018-06-15T23:56:29.803Z,8.13
2018-06-15T23:58:58.723Z,8.47
